sensor_id;sensor_type;location;lat;lon;timestamp;pressure;altitude;pressure_sealevel;temperature;humidity
56894;BME280;43392;50.078;13.704;2022-09-21T00:00:10;97706.56;;;7.77;81.96
56894;BME280;43392;50.078;13.704;2022-09-21T00:02:37;97706.00;;;7.75;82.14
56894;BME280;43392;50.078;13.704;2022-09-21T00:05:04;97708.41;;;7.76;81.83
56894;BME280;43392;50.078;13.704;2022-09-21T00:07:31;97717.44;;;7.75;81.97
56894;BME280;43392;50.078;13.704;2022-09-21T00:09:58;97716.66;;;7.75;81.85
56894;BME280;43392;50.078;13.704;2022-09-21T00:12:25;97720.13;;;7.75;81.80
56894;BME280;43392;50.078;13.704;2022-09-21T00:14:51;97723.19;;;7.67;81.89
56894;BME280;43392;50.078;13.704;2022-09-21T00:17:19;97720.44;;;7.62;82.07
56894;BME280;43392;50.078;13.704;2022-09-21T00:19:46;97723.09;;;7.62;82.26
56894;BME280;43392;50.078;13.704;2022-09-21T00:22:12;97725.28;;;7.65;82.44
56894;BME280;43392;50.078;13.704;2022-09-21T00:24:39;97716.22;;;7.66;82.32
56894;BME280;43392;50.078;13.704;2022-09-21T00:27:05;97716.22;;;7.66;82.04
56894;BME280;43392;50.078;13.704;2022-09-21T00:29:32;97716.56;;;7.70;82.15
56894;BME280;43392;50.078;13.704;2022-09-21T00:32:00;97717.94;;;7.72;82.15
56894;BME280;43392;50.078;13.704;2022-09-21T00:34:28;97725.47;;;7.75;81.90
56894;BME280;43392;50.078;13.704;2022-09-21T00:36:54;97729.31;;;7.79;82.00
56894;BME280;43392;50.078;13.704;2022-09-21T00:39:21;97722.09;;;7.80;81.82
56894;BME280;43392;50.078;13.704;2022-09-21T00:41:47;97722.09;;;7.80;81.66
56894;BME280;43392;50.078;13.704;2022-09-21T00:44:29;97719.34;;;7.75;81.15
56894;BME280;43392;50.078;13.704;2022-09-21T00:46:57;97720.84;;;7.71;81.34
56894;BME280;43392;50.078;13.704;2022-09-21T00:49:28;97727.72;;;7.67;81.69
56894;BME280;43392;50.078;13.704;2022-09-21T00:51:57;97716.69;;;7.63;81.76
56894;BME280;43392;50.078;13.704;2022-09-21T00:54:30;97713.25;;;7.63;82.01
56894;BME280;43392;50.078;13.704;2022-09-21T00:56:58;97730.75;;;7.59;81.97
56894;BME280;43392;50.078;13.704;2022-09-21T00:59:27;97718.47;;;7.58;82.08
56894;BME280;43392;50.078;13.704;2022-09-21T01:01:54;97727.97;;;7.54;81.88
56894;BME280;43392;50.078;13.704;2022-09-21T01:04:21;97724.53;;;7.53;81.91
56894;BME280;43392;50.078;13.704;2022-09-21T01:06:49;97720.69;;;7.49;81.99
56894;BME280;43392;50.078;13.704;2022-09-21T01:09:17;97728.13;;;7.47;82.25
56894;BME280;43392;50.078;13.704;2022-09-21T01:11:52;97728.13;;;7.47;82.28
56894;BME280;43392;50.078;13.704;2022-09-21T01:17:29;97726.22;;;7.59;82.36
56894;BME280;43392;50.078;13.704;2022-09-21T01:20:32;97729.47;;;7.61;82.88
56894;BME280;43392;50.078;13.704;2022-09-21T01:23:18;97737.47;;;7.61;82.58
56894;BME280;43392;50.078;13.704;2022-09-21T01:26:00;97732.38;;;7.60;83.15
56894;BME280;43392;50.078;13.704;2022-09-21T01:28:45;97736.34;;;7.57;83.19
56894;BME280;43392;50.078;13.704;2022-09-21T01:31:19;97735.06;;;7.60;83.11
56894;BME280;43392;50.078;13.704;2022-09-21T01:33:50;97730.53;;;7.60;83.33
56894;BME280;43392;50.078;13.704;2022-09-21T01:36:21;97735.63;;;7.62;83.64
56894;BME280;43392;50.078;13.704;2022-09-21T01:38:53;97736.66;;;7.61;83.63
56894;BME280;43392;50.078;13.704;2022-09-21T01:41:23;97740.63;;;7.58;83.12
56894;BME280;43392;50.078;13.704;2022-09-21T01:43:56;97729.50;;;7.50;83.12
56894;BME280;43392;50.078;13.704;2022-09-21T01:46:27;97736.59;;;7.44;83.19
56894;BME280;43392;50.078;13.704;2022-09-21T01:48:57;97738.84;;;7.35;83.74
56894;BME280;43392;50.078;13.704;2022-09-21T01:51:28;97741.72;;;7.34;83.42
56894;BME280;43392;50.078;13.704;2022-09-21T01:53:56;97741.72;;;7.34;83.59
56894;BME280;43392;50.078;13.704;2022-09-21T01:56:27;97737.78;;;7.36;83.80
56894;BME280;43392;50.078;13.704;2022-09-21T01:59:05;97740.44;;;7.36;84.15
56894;BME280;43392;50.078;13.704;2022-09-21T02:01:36;97743.09;;;7.36;83.90
56894;BME280;43392;50.078;13.704;2022-09-21T02:04:09;97734.31;;;7.36;83.76
56894;BME280;43392;50.078;13.704;2022-09-21T02:06:38;97732.22;;;7.38;83.86
56894;BME280;43392;50.078;13.704;2022-09-21T02:09:06;97733.03;;;7.39;84.00
56894;BME280;43392;50.078;13.704;2022-09-21T02:11:34;97736.16;;;7.35;83.82
56894;BME280;43392;50.078;13.704;2022-09-21T02:14:04;97733.72;;;7.34;84.05
56894;BME280;43392;50.078;13.704;2022-09-21T02:16:37;97742.22;;;7.31;84.07
56894;BME280;43392;50.078;13.704;2022-09-21T02:19:11;97728.88;;;7.31;83.96
56894;BME280;43392;50.078;13.704;2022-09-21T02:21:49;97738.72;;;7.30;84.15
56894;BME280;43392;50.078;13.704;2022-09-21T02:24:24;97738.38;;;7.27;84.04
56894;BME280;43392;50.078;13.704;2022-09-21T02:27:01;97734.31;;;7.24;84.04
56894;BME280;43392;50.078;13.704;2022-09-21T02:29:36;97733.19;;;7.20;84.30
56894;BME280;43392;50.078;13.704;2022-09-21T02:32:07;97730.19;;;7.17;84.27
56894;BME280;43392;50.078;13.704;2022-09-21T02:34:43;97741.06;;;7.15;84.32
56894;BME280;43392;50.078;13.704;2022-09-21T02:37:17;97741.88;;;7.16;84.00
56894;BME280;43392;50.078;13.704;2022-09-21T02:39:53;97741.78;;;7.11;83.88
56894;BME280;43392;50.078;13.704;2022-09-21T02:42:26;97743.75;;;7.04;84.09
56894;BME280;43392;50.078;13.704;2022-09-21T02:45:00;97740.16;;;6.98;84.00
56894;BME280;43392;50.078;13.704;2022-09-21T02:47:33;97746.88;;;7.01;84.12
56894;BME280;43392;50.078;13.704;2022-09-21T02:50:04;97745.59;;;7.03;83.97
56894;BME280;43392;50.078;13.704;2022-09-21T02:52:33;97752.44;;;7.11;84.09
56894;BME280;43392;50.078;13.704;2022-09-21T02:55:02;97744.69;;;7.09;83.88
56894;BME280;43392;50.078;13.704;2022-09-21T02:57:30;97760.09;;;7.07;83.95
56894;BME280;43392;50.078;13.704;2022-09-21T02:59:58;97758.13;;;7.03;83.73
56894;BME280;43392;50.078;13.704;2022-09-21T03:02:35;97756.97;;;6.99;84.23
56894;BME280;43392;50.078;13.704;2022-09-21T03:05:02;97752.91;;;6.96;83.88
56894;BME280;43392;50.078;13.704;2022-09-21T03:07:29;97760.56;;;6.93;84.22
56894;BME280;43392;50.078;13.704;2022-09-21T03:09:56;97764.28;;;6.92;84.27
56894;BME280;43392;50.078;13.704;2022-09-21T03:12:23;97769.03;;;6.90;84.39
56894;BME280;43392;50.078;13.704;2022-09-21T03:14:51;97777.38;;;6.93;83.96
56894;BME280;43392;50.078;13.704;2022-09-21T03:17:19;97776.34;;;6.94;84.55
56894;BME280;43392;50.078;13.704;2022-09-21T03:19:46;97771.13;;;6.99;84.35
56894;BME280;43392;50.078;13.704;2022-09-21T03:22:13;97764.03;;;7.05;84.28
56894;BME280;43392;50.078;13.704;2022-09-21T03:24:41;97759.88;;;7.09;84.39
56894;BME280;43392;50.078;13.704;2022-09-21T03:27:14;97767.63;;;7.10;84.10
56894;BME280;43392;50.078;13.704;2022-09-21T03:29:41;97764.75;;;7.12;83.95
56894;BME280;43392;50.078;13.704;2022-09-21T03:32:08;97762.88;;;7.12;84.26
56894;BME280;43392;50.078;13.704;2022-09-21T03:34:36;97773.53;;;7.12;84.15
56894;BME280;43392;50.078;13.704;2022-09-21T03:37:05;97770.66;;;7.14;84.25
56894;BME280;43392;50.078;13.704;2022-09-21T03:39:32;97759.06;;;7.08;84.28
56894;BME280;43392;50.078;13.704;2022-09-21T03:41:59;97759.06;;;7.08;84.24
56894;BME280;43392;50.078;13.704;2022-09-21T03:44:27;97767.16;;;7.13;84.32
56894;BME280;43392;50.078;13.704;2022-09-21T03:46:53;97765.78;;;7.11;84.37
56894;BME280;43392;50.078;13.704;2022-09-21T03:49:21;97773.22;;;7.09;84.58
56894;BME280;43392;50.078;13.704;2022-09-21T03:51:49;97766.25;;;7.08;84.29
56894;BME280;43392;50.078;13.704;2022-09-21T03:54:15;97772.38;;;7.08;84.47
56894;BME280;43392;50.078;13.704;2022-09-21T03:56:42;97777.47;;;7.10;84.71
56894;BME280;43392;50.078;13.704;2022-09-21T03:59:09;97767.41;;;7.12;84.56
56894;BME280;43392;50.078;13.704;2022-09-21T04:01:35;97781.31;;;7.14;84.58
56894;BME280;43392;50.078;13.704;2022-09-21T04:04:02;97774.72;;;7.16;84.60
56894;BME280;43392;50.078;13.704;2022-09-21T04:06:29;97782.00;;;7.21;84.56
56894;BME280;43392;50.078;13.704;2022-09-21T04:08:57;97779.91;;;7.23;84.23
56894;BME280;43392;50.078;13.704;2022-09-21T04:11:24;97789.31;;;7.25;84.54
56894;BME280;43392;50.078;13.704;2022-09-21T04:13:51;97787.09;;;7.22;84.25
56894;BME280;43392;50.078;13.704;2022-09-21T04:16:21;97787.22;;;7.27;84.27
56894;BME280;43392;50.078;13.704;2022-09-21T04:18:48;97791.41;;;7.23;84.15
56894;BME280;43392;50.078;13.704;2022-09-21T04:21:15;97792.09;;;7.19;83.98
56894;BME280;43392;50.078;13.704;2022-09-21T04:23:41;97793.13;;;7.18;84.26
56894;BME280;43392;50.078;13.704;2022-09-21T04:26:18;97792.44;;;7.11;84.65
56894;BME280;43392;50.078;13.704;2022-09-21T04:28:45;97793.47;;;7.10;84.70
56894;BME280;43392;50.078;13.704;2022-09-21T04:31:11;97794.09;;;7.12;84.87
56894;BME280;43392;50.078;13.704;2022-09-21T04:33:38;97789.66;;;7.17;85.00
56894;BME280;43392;50.078;13.704;2022-09-21T04:36:05;97796.94;;;7.22;84.88
56894;BME280;43392;50.078;13.704;2022-09-21T04:38:32;97794.53;;;7.20;84.68
56894;BME280;43392;50.078;13.704;2022-09-21T04:40:59;97803.34;;;7.21;85.07
56894;BME280;43392;50.078;13.704;2022-09-21T04:43:27;97797.06;;;7.27;84.83
56894;BME280;43392;50.078;13.704;2022-09-21T04:45:54;97797.31;;;7.25;84.90
56894;BME280;43392;50.078;13.704;2022-09-21T04:48:20;97797.78;;;7.22;85.04
56894;BME280;43392;50.078;13.704;2022-09-21T04:50:47;97791.28;;;7.18;85.38
56894;BME280;43392;50.078;13.704;2022-09-21T04:53:14;97793.13;;;7.18;85.61
56894;BME280;43392;50.078;13.704;2022-09-21T04:55:40;97798.47;;;7.18;85.85
56894;BME280;43392;50.078;13.704;2022-09-21T04:58:07;97804.94;;;7.22;85.84
56894;BME280;43392;50.078;13.704;2022-09-21T05:00:35;97801.81;;;7.25;85.46
56894;BME280;43392;50.078;13.704;2022-09-21T05:03:02;97811.47;;;7.26;85.44
56894;BME280;43392;50.078;13.704;2022-09-21T05:05:28;97810.88;;;7.24;85.65
56894;BME280;43392;50.078;13.704;2022-09-21T05:07:56;97817.50;;;7.21;85.25
56894;BME280;43392;50.078;13.704;2022-09-21T05:10:22;97804.94;;;7.22;85.74
56894;BME280;43392;50.078;13.704;2022-09-21T05:12:48;97817.81;;;7.25;85.85
56894;BME280;43392;50.078;13.704;2022-09-21T05:15:16;97813.88;;;7.27;85.46
56894;BME280;43392;50.078;13.704;2022-09-21T05:17:44;97811.56;;;7.31;85.59
56894;BME280;43392;50.078;13.704;2022-09-21T05:20:10;97816.22;;;7.35;85.41
56894;BME280;43392;50.078;13.704;2022-09-21T05:22:37;97816.53;;;7.39;85.60
56894;BME280;43392;50.078;13.704;2022-09-21T05:25:05;97828.59;;;7.42;85.10
56894;BME280;43392;50.078;13.704;2022-09-21T05:27:32;97827.22;;;7.39;85.33
56894;BME280;43392;50.078;13.704;2022-09-21T05:29:59;97831.75;;;7.39;85.27
56894;BME280;43392;50.078;13.704;2022-09-21T05:32:40;97829.31;;;7.37;85.27
56894;BME280;43392;50.078;13.704;2022-09-21T05:35:14;97838.38;;;7.36;85.69
56894;BME280;43392;50.078;13.704;2022-09-21T05:37:51;97830.59;;;7.34;86.33
56894;BME280;43392;50.078;13.704;2022-09-21T05:40:19;97835.69;;;7.36;86.11
56894;BME280;43392;50.078;13.704;2022-09-21T05:42:47;97828.03;;;7.40;86.12
56894;BME280;43392;50.078;13.704;2022-09-21T05:45:15;97845.19;;;7.44;85.91
56894;BME280;43392;50.078;13.704;2022-09-21T05:47:53;97838.56;;;7.46;85.83
56894;BME280;43392;50.078;13.704;2022-09-21T05:50:35;97847.75;;;7.50;85.97
56894;BME280;43392;50.078;13.704;2022-09-21T05:53:25;97855.28;;;7.53;85.59
56894;BME280;43392;50.078;13.704;2022-09-21T05:55:57;97847.28;;;7.53;85.24
56894;BME280;43392;50.078;13.704;2022-09-21T05:58:31;97861.66;;;7.52;85.34
56894;BME280;43392;50.078;13.704;2022-09-21T06:01:14;97862.81;;;7.56;85.08
56894;BME280;43392;50.078;13.704;2022-09-21T06:03:44;97860.03;;;7.63;84.98
56894;BME280;43392;50.078;13.704;2022-09-21T06:06:18;97856.41;;;7.69;84.63
56894;BME280;43392;50.078;13.704;2022-09-21T06:08:45;97856.88;;;7.77;84.58
56894;BME280;43392;50.078;13.704;2022-09-21T06:11:12;97850.59;;;7.83;84.20
56894;BME280;43392;50.078;13.704;2022-09-21T06:13:39;97865.06;;;7.87;84.12
56894;BME280;43392;50.078;13.704;2022-09-21T06:16:06;97860.09;;;7.91;84.28
56894;BME280;43392;50.078;13.704;2022-09-21T06:18:36;97863.44;;;7.98;84.06
56894;BME280;43392;50.078;13.704;2022-09-21T06:21:02;97863.28;;;8.04;83.84
56894;BME280;43392;50.078;13.704;2022-09-21T06:23:30;97867.91;;;8.09;84.14
56894;BME280;43392;50.078;13.704;2022-09-21T06:25:57;97861.53;;;8.10;83.70
56894;BME280;43392;50.078;13.704;2022-09-21T06:28:24;97864.56;;;8.14;83.69
56894;BME280;43392;50.078;13.704;2022-09-21T06:30:51;97855.00;;;8.18;83.81
56894;BME280;43392;50.078;13.704;2022-09-21T06:33:19;97869.41;;;8.17;83.70
56894;BME280;43392;50.078;13.704;2022-09-21T06:35:51;97868.84;;;8.15;83.35
56894;BME280;43392;50.078;13.704;2022-09-21T06:38:19;97867.22;;;8.14;83.67
56894;BME280;43392;50.078;13.704;2022-09-21T06:40:47;97876.63;;;8.16;83.14
56894;BME280;43392;50.078;13.704;2022-09-21T06:43:13;97863.28;;;8.16;82.93
56894;BME280;43392;50.078;13.704;2022-09-21T06:45:40;97871.88;;;8.18;82.60
56894;BME280;43392;50.078;13.704;2022-09-21T06:48:07;97869.50;;;8.22;82.65
56894;BME280;43392;50.078;13.704;2022-09-21T06:50:34;97860.00;;;8.26;82.66
56894;BME280;43392;50.078;13.704;2022-09-21T06:53:01;97869.50;;;8.33;82.76
56894;BME280;43392;50.078;13.704;2022-09-21T06:55:28;97873.31;;;8.37;83.11
56894;BME280;43392;50.078;13.704;2022-09-21T06:58:00;97869.13;;;8.41;83.54
56894;BME280;43392;50.078;13.704;2022-09-21T07:00:27;97874.81;;;8.45;83.49
56894;BME280;43392;50.078;13.704;2022-09-21T07:02:53;97878.38;;;8.50;83.63
56894;BME280;43392;50.078;13.704;2022-09-21T07:05:20;97878.25;;;8.57;83.26
56894;BME280;43392;50.078;13.704;2022-09-21T07:07:47;97872.38;;;8.60;83.09
56894;BME280;43392;50.078;13.704;2022-09-21T07:10:13;97876.69;;;8.61;82.98
56894;BME280;43392;50.078;13.704;2022-09-21T07:12:40;97885.84;;;8.65;82.98
56894;BME280;43392;50.078;13.704;2022-09-21T07:15:09;97888.06;;;8.68;82.66
56894;BME280;43392;50.078;13.704;2022-09-21T07:17:38;97893.75;;;8.72;82.56
56894;BME280;43392;50.078;13.704;2022-09-21T07:20:06;97891.38;;;8.75;82.82
56894;BME280;43392;50.078;13.704;2022-09-21T07:22:33;97896.81;;;8.80;82.37
56894;BME280;43392;50.078;13.704;2022-09-21T07:25:00;97903.06;;;8.86;82.26
56894;BME280;43392;50.078;13.704;2022-09-21T07:27:27;97891.31;;;8.87;82.01
56894;BME280;43392;50.078;13.704;2022-09-21T07:29:54;97894.81;;;8.87;81.96
56894;BME280;43392;50.078;13.704;2022-09-21T07:32:22;97905.59;;;8.92;81.80
56894;BME280;43392;50.078;13.704;2022-09-21T07:34:50;97892.56;;;8.96;81.10
56894;BME280;43392;50.078;13.704;2022-09-21T07:37:20;97897.41;;;8.99;81.01
56894;BME280;43392;50.078;13.704;2022-09-21T07:39:48;97894.50;;;9.00;81.11
56894;BME280;43392;50.078;13.704;2022-09-21T07:42:15;97899.03;;;9.00;80.82
56894;BME280;43392;50.078;13.704;2022-09-21T07:44:42;97894.03;;;9.03;80.88
56894;BME280;43392;50.078;13.704;2022-09-21T07:47:08;97900.59;;;9.12;80.53
56894;BME280;43392;50.078;13.704;2022-09-21T07:49:38;97906.59;;;9.19;80.12
56894;BME280;43392;50.078;13.704;2022-09-21T07:52:05;97901.06;;;9.26;79.78
56894;BME280;43392;50.078;13.704;2022-09-21T07:54:32;97898.72;;;9.29;79.75
56894;BME280;43392;50.078;13.704;2022-09-21T07:56:59;97901.78;;;9.38;79.66
56894;BME280;43392;50.078;13.704;2022-09-21T07:59:44;97907.56;;;9.47;79.07
56894;BME280;43392;50.078;13.704;2022-09-21T08:02:11;97907.63;;;9.52;79.00
56894;BME280;43392;50.078;13.704;2022-09-21T08:04:39;97910.88;;;9.54;78.46
56894;BME280;43392;50.078;13.704;2022-09-21T08:07:05;97914.94;;;9.56;78.17
56894;BME280;43392;50.078;13.704;2022-09-21T08:09:32;97913.38;;;9.60;78.33
56894;BME280;43392;50.078;13.704;2022-09-21T08:11:59;97905.69;;;9.64;78.52
56894;BME280;43392;50.078;13.704;2022-09-21T08:14:25;97919.63;;;9.66;77.89
56894;BME280;43392;50.078;13.704;2022-09-21T08:16:53;97916.38;;;9.64;77.58
56894;BME280;43392;50.078;13.704;2022-09-21T08:19:20;97919.63;;;9.66;77.67
56894;BME280;43392;50.078;13.704;2022-09-21T08:21:51;97922.44;;;9.76;77.83
56894;BME280;43392;50.078;13.704;2022-09-21T08:24:18;97919.09;;;9.85;77.37
56894;BME280;43392;50.078;13.704;2022-09-21T08:26:45;97924.94;;;9.82;77.30
56894;BME280;43392;50.078;13.704;2022-09-21T08:29:12;97921.44;;;9.82;77.33
56894;BME280;43392;50.078;13.704;2022-09-21T08:31:39;97925.19;;;9.81;77.52
56894;BME280;43392;50.078;13.704;2022-09-21T08:34:05;97918.78;;;9.82;77.67
56894;BME280;43392;50.078;13.704;2022-09-21T08:36:32;97923.66;;;9.85;77.98
56894;BME280;43392;50.078;13.704;2022-09-21T08:39:01;97923.59;;;10.01;77.36
56894;BME280;43392;50.078;13.704;2022-09-21T08:41:42;97921.97;;;10.17;77.19
56894;BME280;43392;50.078;13.704;2022-09-21T08:44:16;97916.63;;;10.22;77.05
56894;BME280;43392;50.078;13.704;2022-09-21T08:46:57;97915.78;;;10.17;77.72
56894;BME280;43392;50.078;13.704;2022-09-21T08:49:28;97919.38;;;10.27;77.50
56894;BME280;43392;50.078;13.704;2022-09-21T08:51:56;97916.00;;;10.37;77.21
56894;BME280;43392;50.078;13.704;2022-09-21T08:54:33;97924.44;;;10.45;76.95
56894;BME280;43392;50.078;13.704;2022-09-21T08:57:00;97920.53;;;10.31;76.40
56894;BME280;43392;50.078;13.704;2022-09-21T08:59:27;97926.03;;;10.41;76.01
56894;BME280;43392;50.078;13.704;2022-09-21T09:01:58;97928.00;;;10.51;76.02
56894;BME280;43392;50.078;13.704;2022-09-21T09:04:47;97923.25;;;10.58;75.63
56894;BME280;43392;50.078;13.704;2022-09-21T09:07:28;97918.06;;;10.51;75.90
56894;BME280;43392;50.078;13.704;2022-09-21T09:10:06;97921.19;;;10.65;74.91
56894;BME280;43392;50.078;13.704;2022-09-21T09:12:49;97917.28;;;10.78;74.21
56894;BME280;43392;50.078;13.704;2022-09-21T09:15:41;97914.03;;;10.76;73.97
56894;BME280;43392;50.078;13.704;2022-09-21T09:18:17;97919.81;;;10.89;73.80
56894;BME280;43392;50.078;13.704;2022-09-21T09:20:53;97919.91;;;10.99;73.57
56894;BME280;43392;50.078;13.704;2022-09-21T09:23:23;97921.06;;;11.08;73.48
56894;BME280;43392;50.078;13.704;2022-09-21T09:25:57;97919.47;;;11.12;73.01
56894;BME280;43392;50.078;13.704;2022-09-21T09:28:28;97922.72;;;11.14;73.09
56894;BME280;43392;50.078;13.704;2022-09-21T09:31:00;97918.25;;;11.25;73.22
56894;BME280;43392;50.078;13.704;2022-09-21T09:33:31;97922.63;;;11.36;73.07
56894;BME280;43392;50.078;13.704;2022-09-21T09:36:04;97926.19;;;11.42;72.31
56894;BME280;43392;50.078;13.704;2022-09-21T09:38:35;97918.13;;;11.42;71.96
56894;BME280;43392;50.078;13.704;2022-09-21T09:41:23;97918.72;;;11.49;72.29
56894;BME280;43392;50.078;13.704;2022-09-21T09:44:05;97909.88;;;11.53;72.29
56894;BME280;43392;50.078;13.704;2022-09-21T09:46:46;97906.44;;;11.63;71.66
56894;BME280;43392;50.078;13.704;2022-09-21T09:49:25;97904.56;;;11.63;72.10
56894;BME280;43392;50.078;13.704;2022-09-21T09:51:54;97903.03;;;11.72;72.62
56894;BME280;43392;50.078;13.704;2022-09-21T09:54:26;97909.03;;;11.84;71.84
56894;BME280;43392;50.078;13.704;2022-09-21T09:56:55;97909.03;;;11.84;71.71
56894;BME280;43392;50.078;13.704;2022-09-21T09:59:25;97912.25;;;11.81;71.04
56894;BME280;43392;50.078;13.704;2022-09-21T10:02:00;97906.03;;;11.76;70.78
56894;BME280;43392;50.078;13.704;2022-09-21T10:04:27;97910.63;;;11.80;70.17
56894;BME280;43392;50.078;13.704;2022-09-21T10:06:53;97897.28;;;11.95;69.72
56894;BME280;43392;50.078;13.704;2022-09-21T10:09:25;97907.53;;;12.09;67.49
56894;BME280;43392;50.078;13.704;2022-09-21T10:11:56;97901.38;;;12.08;66.82
56894;BME280;43392;50.078;13.704;2022-09-21T10:14:25;97901.66;;;12.12;66.84
56894;BME280;43392;50.078;13.704;2022-09-21T10:16:55;97898.44;;;12.15;66.35
56894;BME280;43392;50.078;13.704;2022-09-21T10:19:23;97895.53;;;12.26;66.45
56894;BME280;43392;50.078;13.704;2022-09-21T10:21:55;97893.97;;;12.40;66.14
56894;BME280;43392;50.078;13.704;2022-09-21T10:24:24;97892.66;;;12.48;65.52
56894;BME280;43392;50.078;13.704;2022-09-21T10:26:55;97884.34;;;12.59;64.62
56894;BME280;43392;50.078;13.704;2022-09-21T10:29:32;97887.31;;;12.63;62.75
56894;BME280;43392;50.078;13.704;2022-09-21T10:32:07;97879.25;;;12.68;64.12
56894;BME280;43392;50.078;13.704;2022-09-21T10:34:59;97883.84;;;12.78;62.99
56894;BME280;43392;50.078;13.704;2022-09-21T10:37:28;97875.47;;;12.74;64.10
56894;BME280;43392;50.078;13.704;2022-09-21T10:39:55;97874.94;;;12.72;63.39
56894;BME280;43392;50.078;13.704;2022-09-21T10:42:23;97879.00;;;12.75;64.05
56894;BME280;43392;50.078;13.704;2022-09-21T10:44:52;97872.78;;;12.74;63.79
56894;BME280;43392;50.078;13.704;2022-09-21T10:47:34;97875.50;;;12.69;64.85
56894;BME280;43392;50.078;13.704;2022-09-21T10:50:04;97873.63;;;12.85;64.41
56894;BME280;43392;50.078;13.704;2022-09-21T10:52:33;97867.41;;;12.74;63.45
56894;BME280;43392;50.078;13.704;2022-09-21T10:55:01;97868.78;;;12.92;63.47
56894;BME280;43392;50.078;13.704;2022-09-21T10:57:30;97866.97;;;13.07;63.64
56894;BME280;43392;50.078;13.704;2022-09-21T11:00:11;97863.69;;;13.05;62.44
56894;BME280;43392;50.078;13.704;2022-09-21T11:02:54;97873.69;;;13.20;62.20
56894;BME280;43392;50.078;13.704;2022-09-21T11:05:24;97861.28;;;13.24;61.29
56894;BME280;43392;50.078;13.704;2022-09-21T11:07:57;97864.25;;;13.32;61.04
56894;BME280;43392;50.078;13.704;2022-09-21T11:10:30;97858.84;;;13.38;61.03
56894;BME280;43392;50.078;13.704;2022-09-21T11:13:09;97846.44;;;13.47;59.87
56894;BME280;43392;50.078;13.704;2022-09-21T11:15:46;97849.13;;;13.52;60.81
56894;BME280;43392;50.078;13.704;2022-09-21T11:18:19;97856.66;;;13.65;59.16
56894;BME280;43392;50.078;13.704;2022-09-21T11:20:49;97852.06;;;13.70;58.47
56894;BME280;43392;50.078;13.704;2022-09-21T11:23:30;97850.25;;;13.30;56.83
56894;BME280;43392;50.078;13.704;2022-09-21T11:26:08;97850.81;;;13.12;57.65
56894;BME280;43392;50.078;13.704;2022-09-21T11:28:45;97853.16;;;12.94;59.04
56894;BME280;43392;50.078;13.704;2022-09-21T11:31:36;97859.91;;;12.81;58.66
56894;BME280;43392;50.078;13.704;2022-09-21T11:34:34;97860.41;;;12.68;60.57
56894;BME280;43392;50.078;13.704;2022-09-21T11:37:13;97865.84;;;12.83;60.09
56894;BME280;43392;50.078;13.704;2022-09-21T11:39:54;97863.16;;;12.93;60.79
56894;BME280;43392;50.078;13.704;2022-09-21T11:42:39;97861.81;;;12.91;59.84
56894;BME280;43392;50.078;13.704;2022-09-21T11:45:25;97855.63;;;13.10;60.02
56894;BME280;43392;50.078;13.704;2022-09-21T11:48:03;97860.22;;;13.10;59.17
56894;BME280;43392;50.078;13.704;2022-09-21T11:50:44;97854.03;;;13.14;58.71
56894;BME280;43392;50.078;13.704;2022-09-21T11:53:37;97851.31;;;13.35;59.19
56894;BME280;43392;50.078;13.704;2022-09-21T11:56:29;97848.34;;;13.51;57.09
56894;BME280;43392;50.078;13.704;2022-09-21T11:59:08;97842.13;;;13.56;56.75
56894;BME280;43392;50.078;13.704;2022-09-21T12:01:52;97833.22;;;13.65;56.22
56894;BME280;43392;50.078;13.704;2022-09-21T12:04:39;97845.59;;;13.71;57.09
56894;BME280;43392;50.078;13.704;2022-09-21T12:07:28;97837.50;;;13.66;56.51
56894;BME280;43392;50.078;13.704;2022-09-21T12:10:13;97833.47;;;13.64;57.54
56894;BME280;43392;50.078;13.704;2022-09-21T12:12:46;97832.63;;;13.73;57.90
56894;BME280;43392;50.078;13.704;2022-09-21T12:15:19;97833.97;;;13.81;56.79
56894;BME280;43392;50.078;13.704;2022-09-21T12:17:54;97834.22;;;13.94;56.71
56894;BME280;43392;50.078;13.704;2022-09-21T12:20:27;97821.50;;;14.00;54.25
56894;BME280;43392;50.078;13.704;2022-09-21T12:22:58;97826.84;;;14.10;54.20
56894;BME280;43392;50.078;13.704;2022-09-21T12:25:31;97822.78;;;14.18;53.81
56894;BME280;43392;50.078;13.704;2022-09-21T12:28:03;97817.84;;;14.35;54.27
56894;BME280;43392;50.078;13.704;2022-09-21T12:30:32;97807.56;;;14.42;53.85
56894;BME280;43392;50.078;13.704;2022-09-21T12:33:04;97805.66;;;14.47;54.49
56894;BME280;43392;50.078;13.704;2022-09-21T12:35:37;97815.91;;;14.45;55.09
56894;BME280;43392;50.078;13.704;2022-09-21T12:38:11;97837.41;;;14.07;56.81
56894;BME280;43392;50.078;13.704;2022-09-21T12:40:45;97828.91;;;13.64;57.43
56894;BME280;43392;50.078;13.704;2022-09-21T12:43:25;97820.06;;;13.39;58.53
56894;BME280;43392;50.078;13.704;2022-09-21T12:45:56;97816.03;;;13.21;59.02
56894;BME280;43392;50.078;13.704;2022-09-21T12:48:30;97827.88;;;13.05;59.42
56894;BME280;43392;50.078;13.704;2022-09-21T12:51:01;97827.06;;;12.89;59.69
56894;BME280;43392;50.078;13.704;2022-09-21T12:53:32;97816.84;;;12.81;60.33
56894;BME280;43392;50.078;13.704;2022-09-21T12:56:04;97827.59;;;12.76;60.25
56894;BME280;43392;50.078;13.704;2022-09-21T12:58:58;97820.31;;;12.77;60.90
56894;BME280;43392;50.078;13.704;2022-09-21T13:01:30;97823.03;;;12.87;60.74
56894;BME280;43392;50.078;13.704;2022-09-21T13:04:28;97820.63;;;13.20;59.88
56894;BME280;43392;50.078;13.704;2022-09-21T13:07:22;97819.25;;;13.43;59.30
56894;BME280;43392;50.078;13.704;2022-09-21T13:09:54;97814.88;;;13.67;59.04
56894;BME280;43392;50.078;13.704;2022-09-21T13:12:24;97812.91;;;13.88;58.78
56894;BME280;43392;50.078;13.704;2022-09-21T13:15:00;97813.97;;;14.02;57.91
56894;BME280;43392;50.078;13.704;2022-09-21T13:17:29;97811.47;;;14.11;57.12
56894;BME280;43392;50.078;13.704;2022-09-21T13:20:02;97811.16;;;14.17;57.28
56894;BME280;43392;50.078;13.704;2022-09-21T13:22:31;97806.53;;;14.28;57.48